sensor_id;sensor_type;location;lat;lon;timestamp;P1;durP1;ratioP1;P2;durP2;ratioP2
6017;SDS011;3037;51.068;13.780;2023-10-19T00:00:18;5.77;;;5.10;;
6017;SDS011;3037;51.068;13.780;2023-10-19T00:02:45;7.57;;;4.90;;
6017;SDS011;3037;51.068;13.780;2023-10-19T00:05:11;7.27;;;5.50;;
6017;SDS011;3037;51.068;13.780;2023-10-19T00:07:39;7.30;;;5.30;;
6017;SDS011;3037;51.068;13.780;2023-10-19T00:10:06;6.00;;;5.40;;
6017;SDS011;3037;51.068;13.780;2023-10-19T00:12:31;6.83;;;4.70;;
6017;SDS011;3037;51.068;13.780;2023-10-19T00:14:57;9.27;;;5.00;;
6017;SDS011;3037;51.068;13.780;2023-10-19T00:17:23;8.50;;;5.90;;
6017;SDS011;3037;51.068;13.780;2023-10-19T00:19:52;10.03;;;4.60;;
6017;SDS011;3037;51.068;13.780;2023-10-19T00:22:36;11.67;;;4.60;;
6017;SDS011;3037;51.068;13.780;2023-10-19T00:25:01;11.67;;;5.13;;
6017;SDS011;3037;51.068;13.780;2023-10-19T00:27:28;7.40;;;4.90;;
6017;SDS011;3037;51.068;13.780;2023-10-19T00:29:54;10.93;;;6.30;;
6017;SDS011;3037;51.068;13.780;2023-10-19T00:32:30;8.23;;;5.00;;
6017;SDS011;3037;51.068;13.780;2023-10-19T00:34:56;10.03;;;5.50;;
6017;SDS011;3037;51.068;13.780;2023-10-19T00:37:21;6.40;;;4.77;;
6017;SDS011;3037;51.068;13.780;2023-10-19T00:39:57;11.30;;;6.47;;
6017;SDS011;3037;51.068;13.780;2023-10-19T00:42:39;6.90;;;5.27;;
6017;SDS011;3037;51.068;13.780;2023-10-19T00:45:10;7.00;;;5.30;;
6017;SDS011;3037;51.068;13.780;2023-10-19T00:47:38;7.70;;;5.03;;
6017;SDS011;3037;51.068;13.780;2023-10-19T00:50:08;9.10;;;5.67;;
6017;SDS011;3037;51.068;13.780;2023-10-19T00:52:42;6.47;;;5.13;;
6017;SDS011;3037;51.068;13.780;2023-10-19T00:55:15;11.43;;;5.47;;
6017;SDS011;3037;51.068;13.780;2023-10-19T00:57:43;8.33;;;5.70;;
6017;SDS011;3037;51.068;13.780;2023-10-19T01:00:13;10.23;;;5.33;;
6017;SDS011;3037;51.068;13.780;2023-10-19T01:02:47;28.17;;;5.50;;
6017;SDS011;3037;51.068;13.780;2023-10-19T01:05:16;19.03;;;6.20;;
6017;SDS011;3037;51.068;13.780;2023-10-19T01:07:46;5.73;;;5.10;;
6017;SDS011;3037;51.068;13.780;2023-10-19T01:10:18;10.63;;;4.83;;
6017;SDS011;3037;51.068;13.780;2023-10-19T01:12:48;11.33;;;5.67;;
6017;SDS011;3037;51.068;13.780;2023-10-19T01:15:17;13.30;;;5.73;;
6017;SDS011;3037;51.068;13.780;2023-10-19T01:17:53;7.53;;;5.73;;
6017;SDS011;3037;51.068;13.780;2023-10-19T01:20:24;10.23;;;5.93;;
6017;SDS011;3037;51.068;13.780;2023-10-19T01:22:57;15.60;;;5.57;;
6017;SDS011;3037;51.068;13.780;2023-10-19T01:25:51;6.63;;;5.57;;
6017;SDS011;3037;51.068;13.780;2023-10-19T01:28:42;8.20;;;6.50;;
6017;SDS011;3037;51.068;13.780;2023-10-19T01:31:12;9.60;;;5.60;;
6017;SDS011;3037;51.068;13.780;2023-10-19T01:33:59;9.20;;;6.50;;
6017;SDS011;3037;51.068;13.780;2023-10-19T01:36:31;8.43;;;6.17;;
6017;SDS011;3037;51.068;13.780;2023-10-19T01:39:09;11.13;;;6.63;;
6017;SDS011;3037;51.068;13.780;2023-10-19T01:41:35;12.40;;;6.77;;
6017;SDS011;3037;51.068;13.780;2023-10-19T01:44:01;9.83;;;6.67;;
6017;SDS011;3037;51.068;13.780;2023-10-19T01:46:31;7.83;;;6.10;;
6017;SDS011;3037;51.068;13.780;2023-10-19T01:48:59;7.07;;;5.80;;
6017;SDS011;3037;51.068;13.780;2023-10-19T01:51:28;7.23;;;5.90;;
6017;SDS011;3037;51.068;13.780;2023-10-19T01:53:55;10.33;;;6.80;;
6017;SDS011;3037;51.068;13.780;2023-10-19T01:56:22;8.27;;;6.37;;
6017;SDS011;3037;51.068;13.780;2023-10-19T01:58:48;10.50;;;5.80;;
6017;SDS011;3037;51.068;13.780;2023-10-19T02:01:16;8.50;;;6.10;;
6017;SDS011;3037;51.068;13.780;2023-10-19T02:03:47;13.73;;;7.13;;
6017;SDS011;3037;51.068;13.780;2023-10-19T02:06:20;7.47;;;6.33;;
6017;SDS011;3037;51.068;13.780;2023-10-19T02:09:04;25.53;;;7.03;;
6017;SDS011;3037;51.068;13.780;2023-10-19T02:11:35;8.63;;;6.63;;
6017;SDS011;3037;51.068;13.780;2023-10-19T02:14:06;8.83;;;6.60;;
6017;SDS011;3037;51.068;13.780;2023-10-19T02:16:44;9.63;;;6.73;;
6017;SDS011;3037;51.068;13.780;2023-10-19T02:19:17;10.33;;;6.80;;
6017;SDS011;3037;51.068;13.780;2023-10-19T02:21:45;13.57;;;7.60;;
6017;SDS011;3037;51.068;13.780;2023-10-19T02:24:24;15.30;;;7.27;;
6017;SDS011;3037;51.068;13.780;2023-10-19T02:26:52;14.33;;;7.23;;
6017;SDS011;3037;51.068;13.780;2023-10-19T02:29:20;10.47;;;6.57;;
6017;SDS011;3037;51.068;13.780;2023-10-19T02:31:49;10.57;;;7.07;;
6017;SDS011;3037;51.068;13.780;2023-10-19T02:34:18;10.60;;;6.93;;
6017;SDS011;3037;51.068;13.780;2023-10-19T02:36:44;9.73;;;7.83;;
6017;SDS011;3037;51.068;13.780;2023-10-19T02:39:11;9.60;;;7.23;;
6017;SDS011;3037;51.068;13.780;2023-10-19T02:41:39;7.90;;;6.80;;
6017;SDS011;3037;51.068;13.780;2023-10-19T02:44:13;13.03;;;7.60;;
6017;SDS011;3037;51.068;13.780;2023-10-19T02:46:43;10.80;;;7.00;;
6017;SDS011;3037;51.068;13.780;2023-10-19T02:49:10;10.33;;;7.43;;
6017;SDS011;3037;51.068;13.780;2023-10-19T02:51:38;11.93;;;7.40;;
6017;SDS011;3037;51.068;13.780;2023-10-19T02:54:05;11.77;;;8.30;;
6017;SDS011;3037;51.068;13.780;2023-10-19T02:56:32;11.87;;;6.40;;
6017;SDS011;3037;51.068;13.780;2023-10-19T02:59:03;12.87;;;8.03;;
6017;SDS011;3037;51.068;13.780;2023-10-19T03:01:29;10.23;;;7.10;;
6017;SDS011;3037;51.068;13.780;2023-10-19T03:03:58;14.80;;;7.93;;
6017;SDS011;3037;51.068;13.780;2023-10-19T03:06:28;9.33;;;7.47;;
6017;SDS011;3037;51.068;13.780;2023-10-19T03:09:03;9.87;;;7.30;;
6017;SDS011;3037;51.068;13.780;2023-10-19T03:11:38;10.80;;;8.40;;
6017;SDS011;3037;51.068;13.780;2023-10-19T03:14:08;21.20;;;9.10;;
6017;SDS011;3037;51.068;13.780;2023-10-19T03:16:36;8.67;;;7.77;;
6017;SDS011;3037;51.068;13.780;2023-10-19T03:19:02;14.77;;;8.23;;
6017;SDS011;3037;51.068;13.780;2023-10-19T03:21:29;14.30;;;9.50;;
6017;SDS011;3037;51.068;13.780;2023-10-19T03:23:58;15.17;;;9.40;;
6017;SDS011;3037;51.068;13.780;2023-10-19T03:26:27;13.33;;;8.97;;
6017;SDS011;3037;51.068;13.780;2023-10-19T03:28:55;9.30;;;8.40;;
6017;SDS011;3037;51.068;13.780;2023-10-19T03:31:24;12.97;;;8.80;;
6017;SDS011;3037;51.068;13.780;2023-10-19T03:33:50;9.37;;;8.37;;
6017;SDS011;3037;51.068;13.780;2023-10-19T03:36:22;14.47;;;9.60;;
6017;SDS011;3037;51.068;13.780;2023-10-19T03:38:49;13.37;;;9.50;;
6017;SDS011;3037;51.068;13.780;2023-10-19T03:41:19;11.43;;;8.10;;
6017;SDS011;3037;51.068;13.780;2023-10-19T03:43:53;11.30;;;8.40;;
6017;SDS011;3037;51.068;13.780;2023-10-19T03:46:22;13.27;;;9.33;;
6017;SDS011;3037;51.068;13.780;2023-10-19T03:48:55;12.83;;;9.50;;
6017;SDS011;3037;51.068;13.780;2023-10-19T03:51:27;13.37;;;9.33;;
6017;SDS011;3037;51.068;13.780;2023-10-19T03:54:04;14.50;;;10.10;;
6017;SDS011;3037;51.068;13.780;2023-10-19T03:56:40;17.73;;;10.23;;
6017;SDS011;3037;51.068;13.780;2023-10-19T03:59:06;14.27;;;10.43;;
6017;SDS011;3037;51.068;13.780;2023-10-19T04:01:32;16.47;;;9.77;;
6017;SDS011;3037;51.068;13.780;2023-10-19T04:03:57;12.80;;;9.67;;
6017;SDS011;3037;51.068;13.780;2023-10-19T04:06:23;13.63;;;9.70;;
6017;SDS011;3037;51.068;13.780;2023-10-19T04:08:48;18.70;;;10.50;;
6017;SDS011;3037;51.068;13.780;2023-10-19T04:11:16;14.30;;;10.20;;
6017;SDS011;3037;51.068;13.780;2023-10-19T04:13:48;14.13;;;10.27;;
6017;SDS011;3037;51.068;13.780;2023-10-19T04:16:21;20.20;;;11.83;;
6017;SDS011;3037;51.068;13.780;2023-10-19T04:18:46;18.83;;;10.90;;
6017;SDS011;3037;51.068;13.780;2023-10-19T04:21:13;16.10;;;12.83;;
6017;SDS011;3037;51.068;13.780;2023-10-19T04:23:38;19.03;;;12.97;;
6017;SDS011;3037;51.068;13.780;2023-10-19T04:26:04;19.67;;;12.80;;
6017;SDS011;3037;51.068;13.780;2023-10-19T04:28:30;16.93;;;13.50;;
6017;SDS011;3037;51.068;13.780;2023-10-19T04:31:03;16.30;;;11.73;;
6017;SDS011;3037;51.068;13.780;2023-10-19T04:33:31;25.83;;;13.87;;
6017;SDS011;3037;51.068;13.780;2023-10-19T04:35:57;23.13;;;15.00;;
6017;SDS011;3037;51.068;13.780;2023-10-19T04:38:25;25.73;;;16.00;;
6017;SDS011;3037;51.068;13.780;2023-10-19T04:40:51;26.00;;;17.07;;
6017;SDS011;3037;51.068;13.780;2023-10-19T04:43:17;27.53;;;16.33;;
6017;SDS011;3037;51.068;13.780;2023-10-19T04:45:42;31.23;;;16.80;;
6017;SDS011;3037;51.068;13.780;2023-10-19T04:48:10;26.80;;;18.70;;
6017;SDS011;3037;51.068;13.780;2023-10-19T04:50:35;26.87;;;18.43;;
6017;SDS011;3037;51.068;13.780;2023-10-19T04:53:01;24.57;;;18.97;;
6017;SDS011;3037;51.068;13.780;2023-10-19T04:55:27;45.47;;;22.33;;
6017;SDS011;3037;51.068;13.780;2023-10-19T04:57:55;55.57;;;20.67;;
6017;SDS011;3037;51.068;13.780;2023-10-19T05:00:21;34.77;;;21.90;;
6017;SDS011;3037;51.068;13.780;2023-10-19T05:02:49;26.13;;;20.07;;
6017;SDS011;3037;51.068;13.780;2023-10-19T05:05:17;35.37;;;22.43;;
6017;SDS011;3037;51.068;13.780;2023-10-19T05:07:43;36.17;;;21.90;;
6017;SDS011;3037;51.068;13.780;2023-10-19T05:10:08;37.03;;;24.30;;
6017;SDS011;3037;51.068;13.780;2023-10-19T05:12:34;43.93;;;25.47;;
6017;SDS011;3037;51.068;13.780;2023-10-19T05:15:00;36.63;;;22.13;;
6017;SDS011;3037;51.068;13.780;2023-10-19T05:17:25;35.63;;;22.97;;
6017;SDS011;3037;51.068;13.780;2023-10-19T05:19:52;33.23;;;24.30;;
6017;SDS011;3037;51.068;13.780;2023-10-19T05:22:18;47.00;;;28.07;;
6017;SDS011;3037;51.068;13.780;2023-10-19T05:24:43;49.80;;;28.00;;
6017;SDS011;3037;51.068;13.780;2023-10-19T05:27:09;45.23;;;30.20;;
6017;SDS011;3037;51.068;13.780;2023-10-19T05:29:35;51.67;;;32.73;;
6017;SDS011;3037;51.068;13.780;2023-10-19T05:32:01;50.77;;;32.23;;
6017;SDS011;3037;51.068;13.780;2023-10-19T05:34:28;57.87;;;34.33;;
6017;SDS011;3037;51.068;13.780;2023-10-19T05:36:54;55.90;;;34.73;;
6017;SDS011;3037;51.068;13.780;2023-10-19T05:39:23;57.20;;;35.00;;
6017;SDS011;3037;51.068;13.780;2023-10-19T05:41:53;54.87;;;37.30;;
6017;SDS011;3037;51.068;13.780;2023-10-19T05:44:18;71.83;;;36.53;;
6017;SDS011;3037;51.068;13.780;2023-10-19T05:46:44;64.00;;;38.37;;
6017;SDS011;3037;51.068;13.780;2023-10-19T05:49:11;63.00;;;37.70;;
6017;SDS011;3037;51.068;13.780;2023-10-19T05:51:38;59.60;;;37.13;;
6017;SDS011;3037;51.068;13.780;2023-10-19T05:54:04;66.77;;;38.10;;
6017;SDS011;3037;51.068;13.780;2023-10-19T05:56:32;61.53;;;38.40;;
6017;SDS011;3037;51.068;13.780;2023-10-19T05:59:01;64.40;;;38.60;;
6017;SDS011;3037;51.068;13.780;2023-10-19T06:01:27;64.40;;;39.87;;
6017;SDS011;3037;51.068;13.780;2023-10-19T06:03:52;64.03;;;38.47;;
6017;SDS011;3037;51.068;13.780;2023-10-19T06:06:21;60.03;;;35.47;;
6017;SDS011;3037;51.068;13.780;2023-10-19T06:08:47;66.70;;;39.20;;
6017;SDS011;3037;51.068;13.780;2023-10-19T06:11:13;58.87;;;38.13;;
6017;SDS011;3037;51.068;13.780;2023-10-19T06:13:38;58.20;;;38.20;;
6017;SDS011;3037;51.068;13.780;2023-10-19T06:16:09;74.33;;;42.43;;
6017;SDS011;3037;51.068;13.780;2023-10-19T06:18:35;64.27;;;39.27;;
6017;SDS011;3037;51.068;13.780;2023-10-19T06:21:00;66.17;;;42.50;;
6017;SDS011;3037;51.068;13.780;2023-10-19T06:23:26;70.57;;;39.27;;
6017;SDS011;3037;51.068;13.780;2023-10-19T06:25:51;68.90;;;38.83;;
6017;SDS011;3037;51.068;13.780;2023-10-19T06:28:17;72.00;;;40.40;;
6017;SDS011;3037;51.068;13.780;2023-10-19T06:30:42;58.73;;;37.30;;
6017;SDS011;3037;51.068;13.780;2023-10-19T06:33:08;60.37;;;37.60;;
6017;SDS011;3037;51.068;13.780;2023-10-19T06:35:34;74.53;;;38.87;;
6017;SDS011;3037;51.068;13.780;2023-10-19T06:38:02;59.33;;;38.50;;
6017;SDS011;3037;51.068;13.780;2023-10-19T06:40:29;61.03;;;37.93;;
6017;SDS011;3037;51.068;13.780;2023-10-19T06:42:55;65.77;;;40.70;;
6017;SDS011;3037;51.068;13.780;2023-10-19T06:45:22;65.90;;;39.40;;
6017;SDS011;3037;51.068;13.780;2023-10-19T06:47:48;62.90;;;37.30;;
6017;SDS011;3037;51.068;13.780;2023-10-19T06:50:15;59.03;;;38.37;;
6017;SDS011;3037;51.068;13.780;2023-10-19T06:52:43;60.80;;;40.33;;
6017;SDS011;3037;51.068;13.780;2023-10-19T06:55:10;59.57;;;39.60;;
6017;SDS011;3037;51.068;13.780;2023-10-19T06:57:42;63.60;;;39.17;;
6017;SDS011;3037;51.068;13.780;2023-10-19T07:00:11;59.77;;;39.50;;
6017;SDS011;3037;51.068;13.780;2023-10-19T07:02:45;59.53;;;39.50;;
6017;SDS011;3037;51.068;13.780;2023-10-19T07:05:11;66.50;;;40.30;;
6017;SDS011;3037;51.068;13.780;2023-10-19T07:07:41;53.33;;;35.37;;
6017;SDS011;3037;51.068;13.780;2023-10-19T07:10:08;55.07;;;35.90;;
6017;SDS011;3037;51.068;13.780;2023-10-19T07:12:35;62.73;;;36.63;;
6017;SDS011;3037;51.068;13.780;2023-10-19T07:15:02;55.20;;;37.27;;
6017;SDS011;3037;51.068;13.780;2023-10-19T07:17:32;51.27;;;34.30;;
6017;SDS011;3037;51.068;13.780;2023-10-19T07:19:58;56.70;;;38.10;;
6017;SDS011;3037;51.068;13.780;2023-10-19T07:25:50;63.20;;;39.53;;
6017;SDS011;3037;51.068;13.780;2023-10-19T07:28:20;58.67;;;38.60;;
6017;SDS011;3037;51.068;13.780;2023-10-19T07:30:47;51.93;;;35.13;;
6017;SDS011;3037;51.068;13.780;2023-10-19T07:33:14;65.00;;;36.60;;
6017;SDS011;3037;51.068;13.780;2023-10-19T07:35:42;51.93;;;33.33;;
6017;SDS011;3037;51.068;13.780;2023-10-19T07:38:11;49.40;;;35.60;;
6017;SDS011;3037;51.068;13.780;2023-10-19T07:40:38;52.30;;;37.80;;
6017;SDS011;3037;51.068;13.780;2023-10-19T07:43:04;55.33;;;34.53;;
6017;SDS011;3037;51.068;13.780;2023-10-19T07:45:30;49.37;;;33.80;;
6017;SDS011;3037;51.068;13.780;2023-10-19T07:47:57;49.80;;;33.53;;
6017;SDS011;3037;51.068;13.780;2023-10-19T07:50:31;55.43;;;34.73;;
6017;SDS011;3037;51.068;13.780;2023-10-19T07:52:57;64.40;;;35.80;;
6017;SDS011;3037;51.068;13.780;2023-10-19T07:55:23;52.93;;;33.87;;
6017;SDS011;3037;51.068;13.780;2023-10-19T07:57:49;50.20;;;34.17;;
6017;SDS011;3037;51.068;13.780;2023-10-19T08:00:15;50.17;;;33.57;;
6017;SDS011;3037;51.068;13.780;2023-10-19T08:02:42;57.73;;;36.40;;
6017;SDS011;3037;51.068;13.780;2023-10-19T08:05:14;58.90;;;36.90;;
6017;SDS011;3037;51.068;13.780;2023-10-19T08:07:43;54.80;;;35.50;;
6017;SDS011;3037;51.068;13.780;2023-10-19T08:10:09;59.03;;;38.00;;
6017;SDS011;3037;51.068;13.780;2023-10-19T08:12:39;52.23;;;35.47;;
6017;SDS011;3037;51.068;13.780;2023-10-19T08:15:08;57.20;;;36.40;;
6017;SDS011;3037;51.068;13.780;2023-10-19T08:17:39;53.67;;;35.47;;
6017;SDS011;3037;51.068;13.780;2023-10-19T08:20:06;59.97;;;34.10;;
6017;SDS011;3037;51.068;13.780;2023-10-19T08:22:34;57.17;;;35.53;;
6017;SDS011;3037;51.068;13.780;2023-10-19T08:25:03;49.17;;;33.50;;
6017;SDS011;3037;51.068;13.780;2023-10-19T08:27:36;51.90;;;32.07;;
6017;SDS011;3037;51.068;13.780;2023-10-19T08:30:15;54.53;;;34.67;;
6017;SDS011;3037;51.068;13.780;2023-10-19T08:32:46;49.57;;;34.00;;
6017;SDS011;3037;51.068;13.780;2023-10-19T08:35:14;53.23;;;34.40;;
6017;SDS011;3037;51.068;13.780;2023-10-19T08:37:43;50.80;;;34.37;;
6017;SDS011;3037;51.068;13.780;2023-10-19T08:40:11;46.07;;;33.43;;
6017;SDS011;3037;51.068;13.780;2023-10-19T08:42:40;53.10;;;32.23;;
6017;SDS011;3037;51.068;13.780;2023-10-19T08:45:06;46.13;;;30.87;;
6017;SDS011;3037;51.068;13.780;2023-10-19T08:47:34;44.43;;;30.20;;
6017;SDS011;3037;51.068;13.780;2023-10-19T08:50:05;42.90;;;30.27;;
6017;SDS011;3037;51.068;13.780;2023-10-19T08:52:33;38.47;;;28.30;;
6017;SDS011;3037;51.068;13.780;2023-10-19T08:55:01;40.10;;;28.03;;
6017;SDS011;3037;51.068;13.780;2023-10-19T08:57:26;35.80;;;28.80;;
6017;SDS011;3037;51.068;13.780;2023-10-19T08:59:56;36.07;;;27.73;;
6017;SDS011;3037;51.068;13.780;2023-10-19T09:02:23;42.23;;;25.47;;
6017;SDS011;3037;51.068;13.780;2023-10-19T09:04:49;33.03;;;24.53;;
6017;SDS011;3037;51.068;13.780;2023-10-19T09:07:16;30.80;;;23.43;;
6017;SDS011;3037;51.068;13.780;2023-10-19T09:09:41;36.73;;;25.13;;
6017;SDS011;3037;51.068;13.780;2023-10-19T09:12:07;33.10;;;22.53;;
6017;SDS011;3037;51.068;13.780;2023-10-19T09:14:34;28.17;;;22.43;;
6017;SDS011;3037;51.068;13.780;2023-10-19T09:17:01;28.90;;;20.77;;
6017;SDS011;3037;51.068;13.780;2023-10-19T09:19:39;26.43;;;20.33;;
6017;SDS011;3037;51.068;13.780;2023-10-19T09:22:07;20.73;;;17.47;;
6017;SDS011;3037;51.068;13.780;2023-10-19T09:24:41;23.30;;;17.50;;
6017;SDS011;3037;51.068;13.780;2023-10-19T09:27:07;29.87;;;19.13;;
6017;SDS011;3037;51.068;13.780;2023-10-19T09:29:33;19.33;;;16.37;;
6017;SDS011;3037;51.068;13.780;2023-10-19T09:31:59;23.97;;;18.83;;
6017;SDS011;3037;51.068;13.780;2023-10-19T09:34:29;20.03;;;16.33;;
6017;SDS011;3037;51.068;13.780;2023-10-19T09:36:58;21.10;;;16.97;;
6017;SDS011;3037;51.068;13.780;2023-10-19T09:39:26;18.90;;;15.70;;
6017;SDS011;3037;51.068;13.780;2023-10-19T09:41:59;19.63;;;14.50;;
6017;SDS011;3037;51.068;13.780;2023-10-19T09:44:45;16.50;;;13.60;;
6017;SDS011;3037;51.068;13.780;2023-10-19T09:47:34;20.43;;;14.10;;
6017;SDS011;3037;51.068;13.780;2023-10-19T09:50:03;15.33;;;13.67;;
6017;SDS011;3037;51.068;13.780;2023-10-19T09:52:31;16.60;;;13.33;;
6017;SDS011;3037;51.068;13.780;2023-10-19T09:57:50;18.80;;;14.47;;
6017;SDS011;3037;51.068;13.780;2023-10-19T10:00:20;17.10;;;14.47;;
6017;SDS011;3037;51.068;13.780;2023-10-19T10:02:48;17.20;;;13.60;;
6017;SDS011;3037;51.068;13.780;2023-10-19T10:10:43;17.60;;;13.50;;
6017;SDS011;3037;51.068;13.780;2023-10-19T10:15:55;16.90;;;14.23;;
6017;SDS011;3037;51.068;13.780;2023-10-19T10:18:23;21.00;;;16.57;;
6017;SDS011;3037;51.068;13.780;2023-10-19T10:23:40;16.60;;;14.73;;
6017;SDS011;3037;51.068;13.780;2023-10-19T10:26:11;20.00;;;15.53;;
6017;SDS011;3037;51.068;13.780;2023-10-19T10:28:38;20.40;;;15.47;;
6017;SDS011;3037;51.068;13.780;2023-10-19T10:36:12;17.23;;;15.43;;
6017;SDS011;3037;51.068;13.780;2023-10-19T10:38:39;20.20;;;17.20;;
6017;SDS011;3037;51.068;13.780;2023-10-19T10:41:05;19.03;;;15.70;;
6017;SDS011;3037;51.068;13.780;2023-10-19T10:43:46;18.60;;;15.63;;
6017;SDS011;3037;51.068;13.780;2023-10-19T10:46:19;19.70;;;16.50;;
6017;SDS011;3037;51.068;13.780;2023-10-19T10:48:49;23.53;;;18.43;;
6017;SDS011;3037;51.068;13.780;2023-10-19T10:51:18;21.20;;;17.87;;
6017;SDS011;3037;51.068;13.780;2023-10-19T10:53:47;19.60;;;17.17;;
6017;SDS011;3037;51.068;13.780;2023-10-19T10:56:13;21.63;;;17.30;;
6017;SDS011;3037;51.068;13.780;2023-10-19T10:58:39;22.87;;;18.23;;
6017;SDS011;3037;51.068;13.780;2023-10-19T11:01:06;27.20;;;18.67;;
6017;SDS011;3037;51.068;13.780;2023-10-19T11:03:31;23.00;;;16.97;;
6017;SDS011;3037;51.068;13.780;2023-10-19T11:06:07;26.17;;;19.00;;
6017;SDS011;3037;51.068;13.780;2023-10-19T11:08:36;23.03;;;18.53;;
6017;SDS011;3037;51.068;13.780;2023-10-19T11:11:09;31.40;;;19.57;;
6017;SDS011;3037;51.068;13.780;2023-10-19T11:13:36;23.93;;;18.47;;
6017;SDS011;3037;51.068;13.780;2023-10-19T11:16:04;22.50;;;18.30;;
6017;SDS011;3037;51.068;13.780;2023-10-19T11:18:31;26.50;;;19.00;;
6017;SDS011;3037;51.068;13.780;2023-10-19T11:21:00;24.97;;;18.63;;
6017;SDS011;3037;51.068;13.780;2023-10-19T11:23:38;25.27;;;18.73;;
6017;SDS011;3037;51.068;13.780;2023-10-19T11:26:11;28.00;;;19.67;;
6017;SDS011;3037;51.068;13.780;2023-10-19T11:28:40;26.70;;;20.63;;
6017;SDS011;3037;51.068;13.780;2023-10-19T11:31:19;23.80;;;19.77;;
6017;SDS011;3037;51.068;13.780;2023-10-19T11:33:47;31.13;;;21.87;;
6017;SDS011;3037;51.068;13.780;2023-10-19T11:36:14;30.50;;;20.63;;
6017;SDS011;3037;51.068;13.780;2023-10-19T11:38:44;28.67;;;19.10;;
6017;SDS011;3037;51.068;13.780;2023-10-19T11:41:12;27.83;;;19.27;;
6017;SDS011;3037;51.068;13.780;2023-10-19T11:43:39;28.10;;;20.50;;
6017;SDS011;3037;51.068;13.780;2023-10-19T11:46:05;28.47;;;19.53;;
6017;SDS011;3037;51.068;13.780;2023-10-19T11:48:32;31.33;;;20.97;;
6017;SDS011;3037;51.068;13.780;2023-10-19T11:50:59;28.63;;;20.33;;
6017;SDS011;3037;51.068;13.780;2023-10-19T11:53:28;26.43;;;19.90;;
6017;SDS011;3037;51.068;13.780;2023-10-19T11:56:00;22.03;;;18.17;;
6017;SDS011;3037;51.068;13.780;2023-10-19T11:58:26;25.20;;;19.63;;
6017;SDS011;3037;51.068;13.780;2023-10-19T12:00:53;28.50;;;21.10;;
6017;SDS011;3037;51.068;13.780;2023-10-19T12:03:19;29.07;;;18.20;;
6017;SDS011;3037;51.068;13.780;2023-10-19T12:05:45;23.90;;;19.07;;
6017;SDS011;3037;51.068;13.780;2023-10-19T12:08:11;27.90;;;20.33;;
6017;SDS011;3037;51.068;13.780;2023-10-19T12:10:36;28.37;;;20.23;;
6017;SDS011;3037;51.068;13.780;2023-10-19T12:13:03;27.90;;;20.37;;
6017;SDS011;3037;51.068;13.780;2023-10-19T12:15:31;24.97;;;20.10;;
6017;SDS011;3037;51.068;13.780;2023-10-19T12:17:57;30.43;;;20.60;;
6017;SDS011;3037;51.068;13.780;2023-10-19T12:20:23;26.57;;;19.90;;
6017;SDS011;3037;51.068;13.780;2023-10-19T12:22:49;24.07;;;18.57;;
6017;SDS011;3037;51.068;13.780;2023-10-19T12:25:18;23.70;;;19.50;;
6017;SDS011;3037;51.068;13.780;2023-10-19T12:27:53;29.90;;;21.80;;
6017;SDS011;3037;51.068;13.780;2023-10-19T12:30:20;29.90;;;20.73;;
6017;SDS011;3037;51.068;13.780;2023-10-19T12:32:46;29.60;;;21.83;;
6017;SDS011;3037;51.068;13.780;2023-10-19T12:35:14;30.13;;;21.87;;
6017;SDS011;3037;51.068;13.780;2023-10-19T12:37:40;38.17;;;23.87;;
6017;SDS011;3037;51.068;13.780;2023-10-19T12:40:14;31.10;;;21.83;;
6017;SDS011;3037;51.068;13.780;2023-10-19T12:42:51;32.70;;;21.50;;
6017;SDS011;3037;51.068;13.780;2023-10-19T12:45:23;27.73;;;21.20;;
6017;SDS011;3037;51.068;13.780;2023-10-19T12:47:50;30.37;;;20.87;;
6017;SDS011;3037;51.068;13.780;2023-10-19T12:50:20;28.47;;;21.43;;
6017;SDS011;3037;51.068;13.780;2023-10-19T12:52:49;30.90;;;23.07;;
6017;SDS011;3037;51.068;13.780;2023-10-19T12:55:15;30.50;;;22.03;;
6017;SDS011;3037;51.068;13.780;2023-10-19T12:57:42;31.40;;;23.00;;
6017;SDS011;3037;51.068;13.780;2023-10-19T13:00:07;27.90;;;22.27;;
6017;SDS011;3037;51.068;13.780;2023-10-19T13:02:49;30.67;;;22.47;;
6017;SDS011;3037;51.068;13.780;2023-10-19T13:05:15;25.50;;;21.20;;
6017;SDS011;3037;51.068;13.780;2023-10-19T13:07:43;29.43;;;23.50;;
6017;SDS011;3037;51.068;13.780;2023-10-19T13:10:09;30.77;;;23.70;;
6017;SDS011;3037;51.068;13.780;2023-10-19T13:12:36;32.23;;;21.70;;
6017;SDS011;3037;51.068;13.780;2023-10-19T13:15:03;33.23;;;22.80;;
6017;SDS011;3037;51.068;13.780;2023-10-19T13:17:32;24.83;;;19.80;;
6017;SDS011;3037;51.068;13.780;2023-10-19T13:19:58;27.03;;;22.17;;
6017;SDS011;3037;51.068;13.780;2023-10-19T13:22:26;31.60;;;21.10;;
6017;SDS011;3037;51.068;13.780;2023-10-19T13:24:52;28.93;;;21.90;;
6017;SDS011;3037;51.068;13.780;2023-10-19T13:27:17;31.07;;;23.03;;
6017;SDS011;3037;51.068;13.780;2023-10-19T13:29:44;28.33;;;22.07;;
6017;SDS011;3037;51.068;13.780;2023-10-19T13:32:11;28.50;;;21.30;;
6017;SDS011;3037;51.068;13.780;2023-10-19T13:34:37;29.00;;;22.53;;
6017;SDS011;3037;51.068;13.780;2023-10-19T13:37:05;23.70;;;21.07;;
6017;SDS011;3037;51.068;13.780;2023-10-19T13:39:33;27.00;;;22.07;;
6017;SDS011;3037;51.068;13.780;2023-10-19T13:41:58;26.80;;;20.30;;
6017;SDS011;3037;51.068;13.780;2023-10-19T13:44:24;28.00;;;22.37;;
6017;SDS011;3037;51.068;13.780;2023-10-19T13:46:51;28.47;;;22.67;;
6017;SDS011;3037;51.068;13.780;2023-10-19T13:49:19;31.87;;;21.83;;
6017;SDS011;3037;51.068;13.780;2023-10-19T13:51:47;28.67;;;21.10;;
6017;SDS011;3037;51.068;13.780;2023-10-19T13:54:13;29.27;;;21.67;;
6017;SDS011;3037;51.068;13.780;2023-10-19T13:56:39;25.80;;;21.23;;
6017;SDS011;3037;51.068;13.780;2023-10-19T13:59:04;26.70;;;21.40;;
6017;SDS011;3037;51.068;13.780;2023-10-19T14:01:30;29.53;;;22.77;;
6017;SDS011;3037;51.068;13.780;2023-10-19T14:03:56;29.23;;;22.00;;
6017;SDS011;3037;51.068;13.780;2023-10-19T14:06:21;29.63;;;24.00;;
6017;SDS011;3037;51.068;13.780;2023-10-19T14:08:49;28.33;;;22.80;;
6017;SDS011;3037;51.068;13.780;2023-10-19T14:11:14;28.80;;;23.00;;
6017;SDS011;3037;51.068;13.780;2023-10-19T14:13:40;30.63;;;23.47;;
6017;SDS011;3037;51.068;13.780;2023-10-19T14:16:07;28.07;;;22.87;;
6017;SDS011;3037;51.068;13.780;2023-10-19T14:18:33;26.60;;;21.57;;
6017;SDS011;3037;51.068;13.780;2023-10-19T14:20:59;27.10;;;22.67;;
6017;SDS011;3037;51.068;13.780;2023-10-19T14:23:25;30.80;;;23.30;;
6017;SDS011;3037;51.068;13.780;2023-10-19T14:25:52;29.50;;;23.03;;
6017;SDS011;3037;51.068;13.780;2023-10-19T14:28:18;29.37;;;24.10;;
6017;SDS011;3037;51.068;13.780;2023-10-19T14:30:44;32.80;;;23.43;;
6017;SDS011;3037;51.068;13.780;2023-10-19T14:33:10;32.37;;;23.30;;
6017;SDS011;3037;51.068;13.780;2023-10-19T14:35:37;30.67;;;22.17;;
6017;SDS011;3037;51.068;13.780;2023-10-19T14:38:06;31.37;;;24.13;;
6017;SDS011;3037;51.068;13.780;2023-10-19T14:40:34;33.37;;;24.00;;
6017;SDS011;3037;51.068;13.780;2023-10-19T14:42:59;30.93;;;24.03;;
6017;SDS011;3037;51.068;13.780;2023-10-19T14:45:26;35.80;;;25.30;;
6017;SDS011;3037;51.068;13.780;2023-10-19T14:47:57;33.70;;;24.60;;
6017;SDS011;3037;51.068;13.780;2023-10-19T14:50:23;34.27;;;25.03;;
6017;SDS011;3037;51.068;13.780;2023-10-19T14:52:52;33.83;;;24.37;;
6017;SDS011;3037;51.068;13.780;2023-10-19T14:55:22;35.97;;;25.67;;
6017;SDS011;3037;51.068;13.780;2023-10-19T14:57:49;38.60;;;24.33;;
6017;SDS011;3037;51.068;13.780;2023-10-19T15:00:20;35.30;;;25.10;;
6017;SDS011;3037;51.068;13.780;2023-10-19T15:02:47;33.57;;;25.20;;
6017;SDS011;3037;51.068;13.780;2023-10-19T15:05:15;32.77;;;26.80;;
6017;SDS011;3037;51.068;13.780;2023-10-19T15:07:42;32.67;;;26.83;;
6017;SDS011;3037;51.068;13.780;2023-10-19T15:10:12;34.90;;;27.70;;